Selma, AL (36701)

5:33 AM CDT on September 28, 2016 (GMT -0500)
Montgomery | | Change Station

Elev 203 ft 32.30 °N, 86.41 °W | Updated 40 minutes ago

Clear
Clear
70 °F
Feels Like 70 °F
N
4
Wind Variable Wind from WSW

Today
High -- | Low -- °F
--% Chance of Precip.
Yesterday
High -- | Low -- °F
Precip. -- in
Pressure 29.92 in
Visibility 9.0 miles
Clouds Clear
Dew Point 65 °F
Humidity 84%
Rainfall 0.00 in
Snow Depth Not available.
6:40 AM 6:36 PM
Waning Crescent, 6% visible
METAR KMGM 280953Z AUTO 24003KT 9SM CLR 21/18 A2993 RMK AO2 SLP131 T02110183
Pressure 29.92 in
Visibility 9.0 miles
Clouds Clear
Dew Point 65 °F
Humidity 84%
Rainfall 0.00 in
Snow Depth Not available.
6:40 AM 6:36 PM
Waning Crescent, 6% visible
METAR KMGM 280953Z AUTO 24003KT 9SM CLR 21/18 A2993 RMK AO2 SLP131 T02110183

10-Day Weather Forecast

Almanac

Astronomy

Sep. 28, 2016 Rise Set
Actual Time
Civil Twilight
Nautical Twilight
Astronomical Twilight
Moon
Length of Visible Light
Length of Day
Tomorrow will be .
, % of the Moon is Illuminated

Today's Extremes

State Highs State Lows

Community

WunderPhotos

Upload Photos

1,942,232 photos uploaded!

WunderBlog® & News

Nearby

Air Quality

  Air Quality AQ Index Pollutant
Not available.

Snow Depth

Station Depth Elevation

Earthquake Activity

City Distance Mag. Time & Date
Minimum magnitude displayed is 2.5.

Coastal Water Temperatures

Place Temperature

Stations

Nearby Weather Stations

Station Location Temp. Windchill Dew Point Humidity Wind Precip. Elev Updated Type
                   

Watches & Warnings

There are currently no watches in effect.